sensor_id;sensor_type;location;lat;lon;timestamp;P1;durP1;ratioP1;P2;durP2;ratioP2
7707;SDS011;3896;48.758;8.888;2023-11-19T00:00:40;2.27;;;1.30;;
7707;SDS011;3896;48.758;8.888;2023-11-19T00:03:05;3.43;;;1.30;;
7707;SDS011;3896;48.758;8.888;2023-11-19T00:05:31;0.90;;;0.90;;
7707;SDS011;3896;48.758;8.888;2023-11-19T00:07:56;1.10;;;1.00;;
7707;SDS011;3896;48.758;8.888;2023-11-19T00:10:22;2.00;;;1.10;;
7707;SDS011;3896;48.758;8.888;2023-11-19T00:12:48;0.80;;;0.80;;
7707;SDS011;3896;48.758;8.888;2023-11-19T00:15:15;0.70;;;0.70;;
7707;SDS011;3896;48.758;8.888;2023-11-19T00:17:44;0.60;;;0.60;;
7707;SDS011;3896;48.758;8.888;2023-11-19T00:20:11;0.60;;;0.50;;
7707;SDS011;3896;48.758;8.888;2023-11-19T00:22:37;0.60;;;0.60;;
7707;SDS011;3896;48.758;8.888;2023-11-19T00:25:03;0.60;;;0.50;;
7707;SDS011;3896;48.758;8.888;2023-11-19T00:27:29;0.50;;;0.50;;
7707;SDS011;3896;48.758;8.888;2023-11-19T00:29:55;0.33;;;0.33;;
7707;SDS011;3896;48.758;8.888;2023-11-19T00:32:21;0.20;;;0.20;;
7707;SDS011;3896;48.758;8.888;2023-11-19T00:34:47;0.27;;;0.27;;
7707;SDS011;3896;48.758;8.888;2023-11-19T00:37:13;1.47;;;0.30;;
7707;SDS011;3896;48.758;8.888;2023-11-19T00:39:40;0.30;;;0.30;;
7707;SDS011;3896;48.758;8.888;2023-11-19T00:42:06;0.20;;;0.20;;
7707;SDS011;3896;48.758;8.888;2023-11-19T00:44:31;0.20;;;0.20;;
7707;SDS011;3896;48.758;8.888;2023-11-19T00:46:57;0.20;;;0.20;;
7707;SDS011;3896;48.758;8.888;2023-11-19T00:49:23;0.30;;;0.30;;
7707;SDS011;3896;48.758;8.888;2023-11-19T00:51:49;1.03;;;0.23;;
7707;SDS011;3896;48.758;8.888;2023-11-19T00:54:14;0.10;;;0.10;;
7707;SDS011;3896;48.758;8.888;2023-11-19T00:56:40;0.10;;;0.10;;
7707;SDS011;3896;48.758;8.888;2023-11-19T00:59:05;0.20;;;0.20;;
7707;SDS011;3896;48.758;8.888;2023-11-19T01:01:31;0.20;;;0.20;;
7707;SDS011;3896;48.758;8.888;2023-11-19T01:03:56;0.13;;;0.13;;
7707;SDS011;3896;48.758;8.888;2023-11-19T01:06:31;0.30;;;0.30;;
7707;SDS011;3896;48.758;8.888;2023-11-19T01:08:57;0.87;;;0.70;;
7707;SDS011;3896;48.758;8.888;2023-11-19T01:11:24;0.20;;;0.20;;
7707;SDS011;3896;48.758;8.888;2023-11-19T01:13:50;0.30;;;0.30;;
7707;SDS011;3896;48.758;8.888;2023-11-19T01:16:16;0.20;;;0.20;;
7707;SDS011;3896;48.758;8.888;2023-11-19T01:18:42;0.10;;;0.10;;
7707;SDS011;3896;48.758;8.888;2023-11-19T01:21:08;0.60;;;0.60;;
7707;SDS011;3896;48.758;8.888;2023-11-19T01:23:34;0.30;;;0.30;;
7707;SDS011;3896;48.758;8.888;2023-11-19T01:26:00;0.30;;;0.30;;
7707;SDS011;3896;48.758;8.888;2023-11-19T01:28:25;0.73;;;0.50;;
7707;SDS011;3896;48.758;8.888;2023-11-19T01:30:51;0.30;;;0.30;;
7707;SDS011;3896;48.758;8.888;2023-11-19T01:33:17;0.83;;;0.30;;
7707;SDS011;3896;48.758;8.888;2023-11-19T01:35:42;0.83;;;0.40;;
7707;SDS011;3896;48.758;8.888;2023-11-19T01:38:08;0.10;;;0.10;;
7707;SDS011;3896;48.758;8.888;2023-11-19T01:40:34;0.43;;;0.30;;
7707;SDS011;3896;48.758;8.888;2023-11-19T01:43:01;0.63;;;0.40;;
7707;SDS011;3896;48.758;8.888;2023-11-19T01:45:28;0.10;;;0.10;;
7707;SDS011;3896;48.758;8.888;2023-11-19T01:47:55;0.77;;;0.40;;
7707;SDS011;3896;48.758;8.888;2023-11-19T01:50:22;0.30;;;0.30;;
7707;SDS011;3896;48.758;8.888;2023-11-19T01:52:49;0.60;;;0.43;;
7707;SDS011;3896;48.758;8.888;2023-11-19T01:55:17;0.40;;;0.40;;
7707;SDS011;3896;48.758;8.888;2023-11-19T01:57:44;0.33;;;0.33;;
7707;SDS011;3896;48.758;8.888;2023-11-19T02:00:11;0.20;;;0.20;;
7707;SDS011;3896;48.758;8.888;2023-11-19T02:02:38;0.30;;;0.30;;
7707;SDS011;3896;48.758;8.888;2023-11-19T02:05:05;0.40;;;0.40;;
7707;SDS011;3896;48.758;8.888;2023-11-19T02:07:31;0.27;;;0.27;;
7707;SDS011;3896;48.758;8.888;2023-11-19T02:09:57;0.83;;;0.40;;
7707;SDS011;3896;48.758;8.888;2023-11-19T02:12:25;0.20;;;0.20;;
7707;SDS011;3896;48.758;8.888;2023-11-19T02:14:53;0.53;;;0.50;;
7707;SDS011;3896;48.758;8.888;2023-11-19T02:17:26;0.27;;;0.27;;
7707;SDS011;3896;48.758;8.888;2023-11-19T02:19:59;0.27;;;0.27;;
7707;SDS011;3896;48.758;8.888;2023-11-19T02:22:25;1.00;;;0.30;;
7707;SDS011;3896;48.758;8.888;2023-11-19T02:24:51;0.33;;;0.30;;
7707;SDS011;3896;48.758;8.888;2023-11-19T02:27:26;0.77;;;0.47;;
7707;SDS011;3896;48.758;8.888;2023-11-19T02:30:13;0.30;;;0.30;;
7707;SDS011;3896;48.758;8.888;2023-11-19T02:32:40;0.40;;;0.40;;
7707;SDS011;3896;48.758;8.888;2023-11-19T02:35:06;1.97;;;0.57;;
7707;SDS011;3896;48.758;8.888;2023-11-19T02:37:36;1.13;;;0.50;;
7707;SDS011;3896;48.758;8.888;2023-11-19T02:40:04;0.20;;;0.20;;
7707;SDS011;3896;48.758;8.888;2023-11-19T02:42:30;0.50;;;0.50;;
7707;SDS011;3896;48.758;8.888;2023-11-19T02:44:56;0.23;;;0.23;;
7707;SDS011;3896;48.758;8.888;2023-11-19T02:47:22;1.70;;;0.37;;
7707;SDS011;3896;48.758;8.888;2023-11-19T02:49:49;2.50;;;0.40;;
7707;SDS011;3896;48.758;8.888;2023-11-19T02:52:15;0.20;;;0.20;;
7707;SDS011;3896;48.758;8.888;2023-11-19T02:54:41;0.30;;;0.30;;
7707;SDS011;3896;48.758;8.888;2023-11-19T02:57:08;0.17;;;0.17;;
7707;SDS011;3896;48.758;8.888;2023-11-19T02:59:38;0.10;;;0.10;;
7707;SDS011;3896;48.758;8.888;2023-11-19T03:02:06;0.17;;;0.17;;
7707;SDS011;3896;48.758;8.888;2023-11-19T03:04:32;0.20;;;0.20;;
7707;SDS011;3896;48.758;8.888;2023-11-19T03:06:58;0.87;;;0.27;;
7707;SDS011;3896;48.758;8.888;2023-11-19T03:09:24;0.30;;;0.30;;
7707;SDS011;3896;48.758;8.888;2023-11-19T03:11:50;1.67;;;1.37;;
7707;SDS011;3896;48.758;8.888;2023-11-19T03:14:15;0.33;;;0.33;;
7707;SDS011;3896;48.758;8.888;2023-11-19T03:16:44;0.30;;;0.30;;
7707;SDS011;3896;48.758;8.888;2023-11-19T03:19:11;0.67;;;0.60;;
7707;SDS011;3896;48.758;8.888;2023-11-19T03:21:37;0.63;;;0.40;;
7707;SDS011;3896;48.758;8.888;2023-11-19T03:24:02;0.40;;;0.40;;
7707;SDS011;3896;48.758;8.888;2023-11-19T03:26:28;0.30;;;0.30;;
7707;SDS011;3896;48.758;8.888;2023-11-19T03:28:54;0.60;;;0.60;;
7707;SDS011;3896;48.758;8.888;2023-11-19T03:31:21;0.50;;;0.50;;
7707;SDS011;3896;48.758;8.888;2023-11-19T03:33:47;0.17;;;0.17;;
7707;SDS011;3896;48.758;8.888;2023-11-19T03:36:13;0.20;;;0.20;;
7707;SDS011;3896;48.758;8.888;2023-11-19T03:38:39;0.27;;;0.27;;
7707;SDS011;3896;48.758;8.888;2023-11-19T03:41:13;0.23;;;0.20;;
7707;SDS011;3896;48.758;8.888;2023-11-19T03:43:39;0.20;;;0.20;;
7707;SDS011;3896;48.758;8.888;2023-11-19T03:46:18;0.53;;;0.53;;
7707;SDS011;3896;48.758;8.888;2023-11-19T03:48:44;0.30;;;0.30;;
7707;SDS011;3896;48.758;8.888;2023-11-19T03:51:12;0.40;;;0.40;;
7707;SDS011;3896;48.758;8.888;2023-11-19T03:53:40;0.10;;;0.10;;
7707;SDS011;3896;48.758;8.888;2023-11-19T03:56:15;0.40;;;0.20;;
7707;SDS011;3896;48.758;8.888;2023-11-19T03:58:40;0.20;;;0.20;;
7707;SDS011;3896;48.758;8.888;2023-11-19T04:01:06;0.20;;;0.20;;
7707;SDS011;3896;48.758;8.888;2023-11-19T04:03:37;0.20;;;0.20;;
7707;SDS011;3896;48.758;8.888;2023-11-19T04:06:02;0.17;;;0.17;;
7707;SDS011;3896;48.758;8.888;2023-11-19T04:08:29;0.10;;;0.10;;
7707;SDS011;3896;48.758;8.888;2023-11-19T04:10:54;0.20;;;0.20;;
7707;SDS011;3896;48.758;8.888;2023-11-19T04:13:20;0.63;;;0.27;;
7707;SDS011;3896;48.758;8.888;2023-11-19T04:15:45;0.30;;;0.30;;
7707;SDS011;3896;48.758;8.888;2023-11-19T04:18:11;0.20;;;0.20;;
7707;SDS011;3896;48.758;8.888;2023-11-19T04:20:36;0.30;;;0.30;;
7707;SDS011;3896;48.758;8.888;2023-11-19T04:23:02;0.20;;;0.20;;
7707;SDS011;3896;48.758;8.888;2023-11-19T04:25:28;0.20;;;0.20;;
7707;SDS011;3896;48.758;8.888;2023-11-19T04:27:53;0.10;;;0.10;;
7707;SDS011;3896;48.758;8.888;2023-11-19T04:30:19;0.10;;;0.10;;
7707;SDS011;3896;48.758;8.888;2023-11-19T04:32:44;0.20;;;0.20;;
7707;SDS011;3896;48.758;8.888;2023-11-19T04:35:10;0.10;;;0.10;;
7707;SDS011;3896;48.758;8.888;2023-11-19T04:37:36;0.10;;;0.10;;
7707;SDS011;3896;48.758;8.888;2023-11-19T04:40:02;0.30;;;0.30;;
7707;SDS011;3896;48.758;8.888;2023-11-19T04:42:28;0.20;;;0.20;;
7707;SDS011;3896;48.758;8.888;2023-11-19T04:44:54;0.17;;;0.17;;
7707;SDS011;3896;48.758;8.888;2023-11-19T04:47:20;0.20;;;0.20;;
7707;SDS011;3896;48.758;8.888;2023-11-19T04:49:46;0.20;;;0.20;;
7707;SDS011;3896;48.758;8.888;2023-11-19T04:52:11;0.53;;;0.20;;
7707;SDS011;3896;48.758;8.888;2023-11-19T04:54:46;0.27;;;0.27;;
7707;SDS011;3896;48.758;8.888;2023-11-19T04:57:13;0.10;;;0.10;;
7707;SDS011;3896;48.758;8.888;2023-11-19T04:59:38;0.57;;;0.23;;
7707;SDS011;3896;48.758;8.888;2023-11-19T05:02:04;0.47;;;0.47;;
7707;SDS011;3896;48.758;8.888;2023-11-19T05:04:30;0.23;;;0.23;;
7707;SDS011;3896;48.758;8.888;2023-11-19T05:06:56;0.97;;;0.97;;
7707;SDS011;3896;48.758;8.888;2023-11-19T05:09:22;0.30;;;0.30;;
7707;SDS011;3896;48.758;8.888;2023-11-19T05:11:47;0.20;;;0.20;;
7707;SDS011;3896;48.758;8.888;2023-11-19T05:14:13;0.30;;;0.30;;
7707;SDS011;3896;48.758;8.888;2023-11-19T05:16:39;0.20;;;0.20;;
7707;SDS011;3896;48.758;8.888;2023-11-19T05:19:05;0.20;;;0.20;;
7707;SDS011;3896;48.758;8.888;2023-11-19T05:21:31;0.30;;;0.30;;
7707;SDS011;3896;48.758;8.888;2023-11-19T05:23:57;0.20;;;0.20;;
7707;SDS011;3896;48.758;8.888;2023-11-19T05:26:23;0.40;;;0.40;;
7707;SDS011;3896;48.758;8.888;2023-11-19T05:28:49;0.27;;;0.27;;
7707;SDS011;3896;48.758;8.888;2023-11-19T05:31:16;0.30;;;0.30;;
7707;SDS011;3896;48.758;8.888;2023-11-19T05:33:42;0.30;;;0.30;;
7707;SDS011;3896;48.758;8.888;2023-11-19T05:36:08;0.20;;;0.20;;
7707;SDS011;3896;48.758;8.888;2023-11-19T05:38:34;1.57;;;0.33;;
7707;SDS011;3896;48.758;8.888;2023-11-19T05:41:01;0.40;;;0.27;;
7707;SDS011;3896;48.758;8.888;2023-11-19T05:43:26;0.10;;;0.10;;
7707;SDS011;3896;48.758;8.888;2023-11-19T05:45:52;0.20;;;0.20;;
7707;SDS011;3896;48.758;8.888;2023-11-19T05:48:17;1.27;;;0.30;;
7707;SDS011;3896;48.758;8.888;2023-11-19T05:50:43;0.30;;;0.30;;
7707;SDS011;3896;48.758;8.888;2023-11-19T05:53:10;0.43;;;0.30;;
7707;SDS011;3896;48.758;8.888;2023-11-19T05:55:38;0.20;;;0.20;;
7707;SDS011;3896;48.758;8.888;2023-11-19T05:58:11;0.37;;;0.37;;
7707;SDS011;3896;48.758;8.888;2023-11-19T06:00:37;0.30;;;0.30;;
7707;SDS011;3896;48.758;8.888;2023-11-19T06:03:04;1.60;;;0.70;;
7707;SDS011;3896;48.758;8.888;2023-11-19T06:05:30;0.50;;;0.50;;
7707;SDS011;3896;48.758;8.888;2023-11-19T06:07:55;2.20;;;0.80;;
7707;SDS011;3896;48.758;8.888;2023-11-19T06:10:22;0.20;;;0.20;;
7707;SDS011;3896;48.758;8.888;2023-11-19T06:12:54;0.83;;;0.30;;
7707;SDS011;3896;48.758;8.888;2023-11-19T06:15:21;2.47;;;0.30;;
7707;SDS011;3896;48.758;8.888;2023-11-19T06:30:43;0.90;;;0.90;;
7707;SDS011;3896;48.758;8.888;2023-11-19T06:33:09;0.50;;;0.50;;
7707;SDS011;3896;48.758;8.888;2023-11-19T06:35:37;1.27;;;1.17;;
7707;SDS011;3896;48.758;8.888;2023-11-19T06:38:03;1.30;;;1.20;;
7707;SDS011;3896;48.758;8.888;2023-11-19T06:40:32;0.30;;;0.30;;
7707;SDS011;3896;48.758;8.888;2023-11-19T06:42:58;0.37;;;0.37;;
7707;SDS011;3896;48.758;8.888;2023-11-19T06:45:24;2.00;;;0.80;;
7707;SDS011;3896;48.758;8.888;2023-11-19T06:47:50;0.53;;;0.53;;
7707;SDS011;3896;48.758;8.888;2023-11-19T06:50:16;0.40;;;0.40;;
7707;SDS011;3896;48.758;8.888;2023-11-19T06:52:41;1.37;;;1.27;;
7707;SDS011;3896;48.758;8.888;2023-11-19T06:55:07;0.60;;;0.60;;
7707;SDS011;3896;48.758;8.888;2023-11-19T06:57:33;0.43;;;0.27;;
7707;SDS011;3896;48.758;8.888;2023-11-19T06:59:58;0.40;;;0.40;;
7707;SDS011;3896;48.758;8.888;2023-11-19T07:02:24;1.13;;;0.30;;
7707;SDS011;3896;48.758;8.888;2023-11-19T07:04:50;0.83;;;0.50;;
7707;SDS011;3896;48.758;8.888;2023-11-19T07:07:16;0.40;;;0.40;;
7707;SDS011;3896;48.758;8.888;2023-11-19T07:09:42;0.50;;;0.50;;
7707;SDS011;3896;48.758;8.888;2023-11-19T07:12:08;1.17;;;0.40;;
7707;SDS011;3896;48.758;8.888;2023-11-19T07:14:34;1.43;;;0.50;;
7707;SDS011;3896;48.758;8.888;2023-11-19T07:16:59;0.63;;;0.60;;
7707;SDS011;3896;48.758;8.888;2023-11-19T07:19:25;1.07;;;0.70;;
7707;SDS011;3896;48.758;8.888;2023-11-19T07:21:51;0.30;;;0.30;;
7707;SDS011;3896;48.758;8.888;2023-11-19T07:24:19;0.20;;;0.20;;
7707;SDS011;3896;48.758;8.888;2023-11-19T07:26:45;0.40;;;0.40;;
7707;SDS011;3896;48.758;8.888;2023-11-19T07:29:15;0.50;;;0.50;;
7707;SDS011;3896;48.758;8.888;2023-11-19T07:31:41;0.20;;;0.20;;
7707;SDS011;3896;48.758;8.888;2023-11-19T07:34:09;2.20;;;0.40;;
7707;SDS011;3896;48.758;8.888;2023-11-19T07:36:35;1.33;;;0.70;;
7707;SDS011;3896;48.758;8.888;2023-11-19T07:39:01;0.40;;;0.40;;
7707;SDS011;3896;48.758;8.888;2023-11-19T07:41:27;0.40;;;0.40;;
7707;SDS011;3896;48.758;8.888;2023-11-19T07:43:53;0.77;;;0.50;;
7707;SDS011;3896;48.758;8.888;2023-11-19T07:46:19;0.40;;;0.40;;
7707;SDS011;3896;48.758;8.888;2023-11-19T07:48:45;0.70;;;0.70;;
7707;SDS011;3896;48.758;8.888;2023-11-19T07:51:12;0.40;;;0.40;;
7707;SDS011;3896;48.758;8.888;2023-11-19T07:53:38;0.30;;;0.30;;
7707;SDS011;3896;48.758;8.888;2023-11-19T07:56:04;0.40;;;0.40;;
7707;SDS011;3896;48.758;8.888;2023-11-19T07:58:30;0.40;;;0.40;;
7707;SDS011;3896;48.758;8.888;2023-11-19T08:00:56;0.40;;;0.40;;
7707;SDS011;3896;48.758;8.888;2023-11-19T08:03:21;0.37;;;0.37;;
7707;SDS011;3896;48.758;8.888;2023-11-19T08:05:47;0.30;;;0.30;;
7707;SDS011;3896;48.758;8.888;2023-11-19T08:08:13;0.20;;;0.20;;
7707;SDS011;3896;48.758;8.888;2023-11-19T08:10:38;0.40;;;0.40;;
7707;SDS011;3896;48.758;8.888;2023-11-19T08:13:05;0.30;;;0.30;;
7707;SDS011;3896;48.758;8.888;2023-11-19T08:15:30;0.50;;;0.50;;
7707;SDS011;3896;48.758;8.888;2023-11-19T08:17:56;0.37;;;0.37;;
7707;SDS011;3896;48.758;8.888;2023-11-19T08:20:22;0.73;;;0.50;;
7707;SDS011;3896;48.758;8.888;2023-11-19T08:22:48;2.60;;;1.30;;
7707;SDS011;3896;48.758;8.888;2023-11-19T08:25:14;1.03;;;1.03;;
7707;SDS011;3896;48.758;8.888;2023-11-19T08:27:39;1.33;;;0.90;;
7707;SDS011;3896;48.758;8.888;2023-11-19T08:30:05;4.60;;;3.30;;
7707;SDS011;3896;48.758;8.888;2023-11-19T08:32:31;0.93;;;0.93;;
7707;SDS011;3896;48.758;8.888;2023-11-19T08:34:57;1.83;;;0.93;;
7707;SDS011;3896;48.758;8.888;2023-11-19T08:37:22;0.97;;;0.80;;
7707;SDS011;3896;48.758;8.888;2023-11-19T08:39:48;1.13;;;0.90;;
7707;SDS011;3896;48.758;8.888;2023-11-19T08:42:14;1.40;;;1.30;;
7707;SDS011;3896;48.758;8.888;2023-11-19T08:44:40;1.13;;;1.10;;
7707;SDS011;3896;48.758;8.888;2023-11-19T08:47:08;2.03;;;1.30;;
7707;SDS011;3896;48.758;8.888;2023-11-19T08:49:34;2.93;;;2.20;;
7707;SDS011;3896;48.758;8.888;2023-11-19T08:52:00;0.90;;;0.90;;
7707;SDS011;3896;48.758;8.888;2023-11-19T08:54:26;1.00;;;1.00;;
7707;SDS011;3896;48.758;8.888;2023-11-19T08:56:53;0.90;;;0.90;;
7707;SDS011;3896;48.758;8.888;2023-11-19T08:59:18;1.87;;;0.80;;
7707;SDS011;3896;48.758;8.888;2023-11-19T09:01:44;0.70;;;0.70;;
7707;SDS011;3896;48.758;8.888;2023-11-19T09:04:10;0.90;;;0.90;;
7707;SDS011;3896;48.758;8.888;2023-11-19T09:06:36;1.93;;;1.20;;
7707;SDS011;3896;48.758;8.888;2023-11-19T09:09:01;2.17;;;1.67;;
7707;SDS011;3896;48.758;8.888;2023-11-19T09:11:31;1.80;;;1.30;;
7707;SDS011;3896;48.758;8.888;2023-11-19T09:13:57;1.00;;;0.90;;
7707;SDS011;3896;48.758;8.888;2023-11-19T09:16:24;0.90;;;0.90;;
7707;SDS011;3896;48.758;8.888;2023-11-19T09:18:50;1.60;;;1.20;;
7707;SDS011;3896;48.758;8.888;2023-11-19T09:21:15;1.23;;;1.10;;
7707;SDS011;3896;48.758;8.888;2023-11-19T09:23:41;4.37;;;2.73;;
7707;SDS011;3896;48.758;8.888;2023-11-19T09:26:06;8.87;;;4.70;;
7707;SDS011;3896;48.758;8.888;2023-11-19T09:28:33;8.37;;;4.07;;
7707;SDS011;3896;48.758;8.888;2023-11-19T09:30:59;3.40;;;2.20;;
7707;SDS011;3896;48.758;8.888;2023-11-19T09:33:24;2.57;;;1.10;;
7707;SDS011;3896;48.758;8.888;2023-11-19T09:35:51;1.20;;;1.10;;
7707;SDS011;3896;48.758;8.888;2023-11-19T09:38:16;0.90;;;0.90;;
7707;SDS011;3896;48.758;8.888;2023-11-19T09:40:42;0.90;;;0.90;;
7707;SDS011;3896;48.758;8.888;2023-11-19T09:43:08;1.23;;;1.00;;
7707;SDS011;3896;48.758;8.888;2023-11-19T09:45:45;0.53;;;0.53;;
7707;SDS011;3896;48.758;8.888;2023-11-19T09:48:14;0.50;;;0.50;;
7707;SDS011;3896;48.758;8.888;2023-11-19T09:50:43;2.70;;;1.60;;
7707;SDS011;3896;48.758;8.888;2023-11-19T09:53:13;1.40;;;1.23;;
7707;SDS011;3896;48.758;8.888;2023-11-19T09:55:40;3.80;;;1.10;;
7707;SDS011;3896;48.758;8.888;2023-11-19T09:58:06;0.87;;;0.80;;
7707;SDS011;3896;48.758;8.888;2023-11-19T10:00:33;0.80;;;0.57;;
7707;SDS011;3896;48.758;8.888;2023-11-19T10:02:59;1.33;;;1.10;;
7707;SDS011;3896;48.758;8.888;2023-11-19T10:05:25;2.27;;;0.87;;
7707;SDS011;3896;48.758;8.888;2023-11-19T10:07:51;1.93;;;0.70;;
7707;SDS011;3896;48.758;8.888;2023-11-19T10:10:20;1.37;;;0.67;;
7707;SDS011;3896;48.758;8.888;2023-11-19T10:12:46;1.30;;;0.53;;
7707;SDS011;3896;48.758;8.888;2023-11-19T10:15:17;0.83;;;0.83;;
7707;SDS011;3896;48.758;8.888;2023-11-19T10:17:47;0.73;;;0.60;;
7707;SDS011;3896;48.758;8.888;2023-11-19T10:20:13;1.80;;;0.67;;
7707;SDS011;3896;48.758;8.888;2023-11-19T10:22:39;1.43;;;0.90;;
7707;SDS011;3896;48.758;8.888;2023-11-19T10:25:05;1.37;;;0.77;;
7707;SDS011;3896;48.758;8.888;2023-11-19T10:27:46;0.70;;;0.70;;
7707;SDS011;3896;48.758;8.888;2023-11-19T10:30:13;1.93;;;1.80;;
7707;SDS011;3896;48.758;8.888;2023-11-19T10:32:42;1.40;;;0.40;;
7707;SDS011;3896;48.758;8.888;2023-11-19T10:35:07;0.57;;;0.50;;
7707;SDS011;3896;48.758;8.888;2023-11-19T10:37:33;0.93;;;0.47;;
7707;SDS011;3896;48.758;8.888;2023-11-19T10:40:02;0.53;;;0.33;;
7707;SDS011;3896;48.758;8.888;2023-11-19T10:42:30;0.30;;;0.30;;
7707;SDS011;3896;48.758;8.888;2023-11-19T10:44:55;0.50;;;0.50;;
7707;SDS011;3896;48.758;8.888;2023-11-19T10:47:22;0.50;;;0.50;;
7707;SDS011;3896;48.758;8.888;2023-11-19T10:49:48;0.33;;;0.33;;
7707;SDS011;3896;48.758;8.888;2023-11-19T10:52:17;0.53;;;0.53;;
7707;SDS011;3896;48.758;8.888;2023-11-19T10:54:49;0.40;;;0.40;;
7707;SDS011;3896;48.758;8.888;2023-11-19T10:57:21;1.57;;;0.50;;
7707;SDS011;3896;48.758;8.888;2023-11-19T10:59:48;0.70;;;0.60;;
7707;SDS011;3896;48.758;8.888;2023-11-19T11:02:18;0.70;;;0.40;;
7707;SDS011;3896;48.758;8.888;2023-11-19T11:04:47;2.63;;;0.63;;
7707;SDS011;3896;48.758;8.888;2023-11-19T11:07:15;2.43;;;0.80;;
7707;SDS011;3896;48.758;8.888;2023-11-19T11:09:43;1.20;;;0.90;;
7707;SDS011;3896;48.758;8.888;2023-11-19T11:12:11;0.97;;;0.63;;
7707;SDS011;3896;48.758;8.888;2023-11-19T11:14:38;0.87;;;0.83;;
7707;SDS011;3896;48.758;8.888;2023-11-19T11:17:05;1.00;;;0.90;;
7707;SDS011;3896;48.758;8.888;2023-11-19T11:19:33;1.77;;;1.10;;
7707;SDS011;3896;48.758;8.888;2023-11-19T11:21:59;1.10;;;0.90;;
7707;SDS011;3896;48.758;8.888;2023-11-19T11:30:19;0.70;;;0.70;;
7707;SDS011;3896;48.758;8.888;2023-11-19T11:33:04;1.80;;;0.60;;
7707;SDS011;3896;48.758;8.888;2023-11-19T11:38:16;0.70;;;0.70;;
7707;SDS011;3896;48.758;8.888;2023-11-19T11:41:03;1.77;;;0.50;;
7707;SDS011;3896;48.758;8.888;2023-11-19T11:43:43;0.63;;;0.63;;
7707;SDS011;3896;48.758;8.888;2023-11-19T11:48:57;1.40;;;0.67;;
7707;SDS011;3896;48.758;8.888;2023-11-19T11:54:31;1.13;;;0.43;;
7707;SDS011;3896;48.758;8.888;2023-11-19T11:57:07;2.07;;;0.60;;
7707;SDS011;3896;48.758;8.888;2023-11-19T11:59:40;0.80;;;0.80;;
7707;SDS011;3896;48.758;8.888;2023-11-19T12:02:09;1.43;;;0.63;;
7707;SDS011;3896;48.758;8.888;2023-11-19T12:04:36;1.23;;;0.40;;
7707;SDS011;3896;48.758;8.888;2023-11-19T12:07:06;0.97;;;0.57;;
7707;SDS011;3896;48.758;8.888;2023-11-19T12:09:42;0.63;;;0.33;;
7707;SDS011;3896;48.758;8.888;2023-11-19T12:12:20;1.33;;;0.60;;
7707;SDS011;3896;48.758;8.888;2023-11-19T12:20:06;0.50;;;0.50;;
7707;SDS011;3896;48.758;8.888;2023-11-19T12:22:39;0.67;;;0.63;;
7707;SDS011;3896;48.758;8.888;2023-11-19T12:25:09;1.00;;;0.70;;
7707;SDS011;3896;48.758;8.888;2023-11-19T12:27:37;2.43;;;1.50;;
7707;SDS011;3896;48.758;8.888;2023-11-19T12:30:05;0.40;;;0.30;;
7707;SDS011;3896;48.758;8.888;2023-11-19T12:32:45;0.50;;;0.47;;
7707;SDS011;3896;48.758;8.888;2023-11-19T12:35:11;1.73;;;0.70;;
7707;SDS011;3896;48.758;8.888;2023-11-19T12:37:40;0.70;;;0.60;;
7707;SDS011;3896;48.758;8.888;2023-11-19T12:40:27;0.63;;;0.63;;
7707;SDS011;3896;48.758;8.888;2023-11-19T12:42:54;0.40;;;0.30;;
7707;SDS011;3896;48.758;8.888;2023-11-19T12:45:20;0.50;;;0.50;;
7707;SDS011;3896;48.758;8.888;2023-11-19T12:47:47;0.50;;;0.50;;
7707;SDS011;3896;48.758;8.888;2023-11-19T12:50:14;0.43;;;0.43;;
7707;SDS011;3896;48.758;8.888;2023-11-19T12:52:40;1.47;;;0.40;;
7707;SDS011;3896;48.758;8.888;2023-11-19T12:57:51;1.03;;;0.50;;
7707;SDS011;3896;48.758;8.888;2023-11-19T13:00:20;0.30;;;0.30;;
7707;SDS011;3896;48.758;8.888;2023-11-19T13:02:47;1.80;;;0.70;;
7707;SDS011;3896;48.758;8.888;2023-11-19T13:05:21;0.40;;;0.40;;
7707;SDS011;3896;48.758;8.888;2023-11-19T13:07:47;0.37;;;0.37;;
7707;SDS011;3896;48.758;8.888;2023-11-19T13:10:12;0.40;;;0.40;;
7707;SDS011;3896;48.758;8.888;2023-11-19T13:12:38;1.00;;;0.43;;
7707;SDS011;3896;48.758;8.888;2023-11-19T13:15:04;1.30;;;0.30;;
7707;SDS011;3896;48.758;8.888;2023-11-19T13:17:30;2.43;;;0.57;;
7707;SDS011;3896;48.758;8.888;2023-11-19T13:19:56;0.73;;;0.37;;
7707;SDS011;3896;48.758;8.888;2023-11-19T13:22:22;1.03;;;0.50;;
7707;SDS011;3896;48.758;8.888;2023-11-19T13:24:48;1.07;;;0.60;;
7707;SDS011;3896;48.758;8.888;2023-11-19T13:27:13;4.30;;;0.90;;
7707;SDS011;3896;48.758;8.888;2023-11-19T13:29:39;1.17;;;0.60;;
7707;SDS011;3896;48.758;8.888;2023-11-19T13:32:04;0.70;;;0.50;;
7707;SDS011;3896;48.758;8.888;2023-11-19T13:34:30;0.40;;;0.40;;
7707;SDS011;3896;48.758;8.888;2023-11-19T13:36:56;2.20;;;0.40;;
7707;SDS011;3896;48.758;8.888;2023-11-19T13:39:22;1.07;;;0.60;;
7707;SDS011;3896;48.758;8.888;2023-11-19T13:41:48;1.43;;;0.40;;
7707;SDS011;3896;48.758;8.888;2023-11-19T13:44:15;1.53;;;0.40;;
7707;SDS011;3896;48.758;8.888;2023-11-19T13:46:43;0.60;;;0.37;;
7707;SDS011;3896;48.758;8.888;2023-11-19T13:49:09;0.43;;;0.43;;
7707;SDS011;3896;48.758;8.888;2023-11-19T13:51:35;0.30;;;0.30;;
7707;SDS011;3896;48.758;8.888;2023-11-19T13:54:01;0.93;;;0.63;;
7707;SDS011;3896;48.758;8.888;2023-11-19T13:56:26;0.90;;;0.40;;
7707;SDS011;3896;48.758;8.888;2023-11-19T13:58:52;1.77;;;0.43;;
7707;SDS011;3896;48.758;8.888;2023-11-19T14:01:18;0.57;;;0.50;;
7707;SDS011;3896;48.758;8.888;2023-11-19T14:03:44;1.40;;;0.67;;
7707;SDS011;3896;48.758;8.888;2023-11-19T14:06:09;0.63;;;0.60;;
7707;SDS011;3896;48.758;8.888;2023-11-19T14:08:35;0.60;;;0.60;;
7707;SDS011;3896;48.758;8.888;2023-11-19T14:11:00;1.07;;;0.80;;
7707;SDS011;3896;48.758;8.888;2023-11-19T14:13:26;0.60;;;0.60;;
7707;SDS011;3896;48.758;8.888;2023-11-19T14:15:52;1.13;;;0.60;;
7707;SDS011;3896;48.758;8.888;2023-11-19T14:18:17;1.77;;;1.00;;
7707;SDS011;3896;48.758;8.888;2023-11-19T14:20:43;0.70;;;0.60;;
7707;SDS011;3896;48.758;8.888;2023-11-19T14:23:09;2.17;;;0.50;;
7707;SDS011;3896;48.758;8.888;2023-11-19T14:25:34;0.73;;;0.40;;
7707;SDS011;3896;48.758;8.888;2023-11-19T14:28:00;0.67;;;0.60;;
7707;SDS011;3896;48.758;8.888;2023-11-19T14:30:25;0.50;;;0.50;;
7707;SDS011;3896;48.758;8.888;2023-11-19T14:32:51;0.60;;;0.50;;
7707;SDS011;3896;48.758;8.888;2023-11-19T14:35:18;1.53;;;0.60;;
7707;SDS011;3896;48.758;8.888;2023-11-19T14:37:45;1.80;;;0.37;;
7707;SDS011;3896;48.758;8.888;2023-11-19T14:40:11;1.57;;;0.70;;
7707;SDS011;3896;48.758;8.888;2023-11-19T14:42:37;1.17;;;0.70;;
7707;SDS011;3896;48.758;8.888;2023-11-19T14:45:04;2.37;;;1.00;;
7707;SDS011;3896;48.758;8.888;2023-11-19T14:47:30;1.77;;;1.00;;
7707;SDS011;3896;48.758;8.888;2023-11-19T14:49:55;0.87;;;0.80;;
7707;SDS011;3896;48.758;8.888;2023-11-19T14:52:21;0.73;;;0.73;;
7707;SDS011;3896;48.758;8.888;2023-11-19T14:54:46;1.53;;;0.90;;
7707;SDS011;3896;48.758;8.888;2023-11-19T14:57:12;0.77;;;0.53;;
7707;SDS011;3896;48.758;8.888;2023-11-19T14:59:38;0.57;;;0.57;;
7707;SDS011;3896;48.758;8.888;2023-11-19T15:02:04;0.63;;;0.20;;
7707;SDS011;3896;48.758;8.888;2023-11-19T15:04:30;0.97;;;0.57;;
7707;SDS011;3896;48.758;8.888;2023-11-19T15:06:57;0.80;;;0.43;;
7707;SDS011;3896;48.758;8.888;2023-11-19T15:09:23;0.30;;;0.30;;
7707;SDS011;3896;48.758;8.888;2023-11-19T15:11:49;1.53;;;0.70;;
7707;SDS011;3896;48.758;8.888;2023-11-19T15:14:15;0.50;;;0.50;;
7707;SDS011;3896;48.758;8.888;2023-11-19T15:16:43;2.67;;;1.17;;
7707;SDS011;3896;48.758;8.888;2023-11-19T15:19:16;1.20;;;1.10;;
7707;SDS011;3896;48.758;8.888;2023-11-19T15:21:41;0.60;;;0.60;;
7707;SDS011;3896;48.758;8.888;2023-11-19T15:24:08;1.27;;;1.03;;
7707;SDS011;3896;48.758;8.888;2023-11-19T15:26:34;1.10;;;0.97;;
7707;SDS011;3896;48.758;8.888;2023-11-19T15:29:00;1.70;;;1.23;;
7707;SDS011;3896;48.758;8.888;2023-11-19T15:31:30;2.73;;;1.13;;
7707;SDS011;3896;48.758;8.888;2023-11-19T15:33:56;1.20;;;0.77;;
7707;SDS011;3896;48.758;8.888;2023-11-19T15:36:21;0.87;;;0.80;;
7707;SDS011;3896;48.758;8.888;2023-11-19T15:38:47;0.90;;;0.77;;
7707;SDS011;3896;48.758;8.888;2023-11-19T15:41:13;1.60;;;0.90;;
7707;SDS011;3896;48.758;8.888;2023-11-19T15:43:39;2.60;;;0.80;;
7707;SDS011;3896;48.758;8.888;2023-11-19T15:46:05;0.97;;;0.63;;
7707;SDS011;3896;48.758;8.888;2023-11-19T15:48:32;0.73;;;0.60;;